Terminal Aerodrome Forecast
Issued by NWS

Home | Current Version | Previous Version | Text Only | Print | Product List | Glossary On
Versions: 1 2 3 4 5 6 7 8 9 10 11 12 13 14 15 16 17 18 19 20
000
FTUS43 KLSX 182000 AAA
TAFUIN
TAF AMD
KUIN 182009Z 1820/1918 05004KT P6SM BKN015 OVC050
     FM190600 06003KT 5SM BR OVC015
     FM191000 07003KT 3SM BR OVC007
     FM191700 12004KT P6SM OVC015=

USA.gov is the U.S. government's official web portal to all federal, state and local government web resources and services.